createdAt,value
2022-11-24T00:02:26.537Z,5.29
2022-11-24T00:04:56.194Z,5.32
2022-11-24T00:07:25.856Z,5.33
2022-11-24T00:09:55.447Z,5.31
2022-11-24T00:12:24.993Z,5.27
2022-11-24T00:14:57.194Z,5.24
2022-11-24T00:17:26.820Z,5.22
2022-11-24T00:19:56.382Z,5.16
2022-11-24T00:22:25.946Z,5.14
2022-11-24T00:24:55.775Z,5.13
2022-11-24T00:27:25.338Z,5.11
2022-11-24T00:29:57.806Z,5.12
2022-11-24T00:32:27.581Z,5.13
2022-11-24T00:34:57.131Z,5.16
2022-11-24T00:37:26.723Z,5.18
2022-11-24T00:39:56.292Z,5.20
2022-11-24T00:42:25.870Z,5.21
2022-11-24T00:44:58.044Z,5.22
2022-11-24T00:47:28.823Z,5.21
2022-11-24T00:49:58.370Z,5.19
2022-11-24T00:52:27.944Z,5.18
2022-11-24T00:54:57.512Z,5.18
2022-11-24T00:57:27.066Z,5.19
2022-11-24T00:59:59.209Z,5.20
2022-11-24T01:02:29.704Z,5.22
2022-11-24T01:04:59.279Z,5.24
2022-11-24T01:07:28.919Z,5.24
2022-11-24T01:09:58.500Z,5.26
2022-11-24T01:12:28.477Z,5.25
2022-11-24T01:15:01.094Z,5.23
2022-11-24T01:17:30.771Z,5.25
2022-11-24T01:20:00.391Z,5.25
2022-11-24T01:22:30.008Z,5.28
2022-11-24T01:24:59.603Z,5.32
2022-11-24T01:27:29.192Z,5.33
2022-11-24T01:30:01.568Z,5.35
2022-11-24T01:32:32.379Z,5.40
2022-11-24T01:35:01.969Z,5.47
2022-11-24T01:37:31.750Z,5.57
2022-11-24T01:40:01.341Z,5.68
2022-11-24T01:42:42.629Z,5.83
2022-11-24T01:45:43.292Z,5.97
2022-11-24T01:48:18.077Z,6.06
2022-11-24T01:50:48.254Z,6.14
2022-11-24T01:53:18.037Z,6.17
2022-11-24T01:55:47.671Z,6.17
2022-11-24T01:58:21.028Z,6.12
2022-11-24T02:00:53.970Z,6.05
2022-11-24T02:03:34.613Z,5.99
2022-11-24T02:06:08.155Z,5.98
2022-11-24T02:08:42.634Z,5.98
2022-11-24T02:11:12.499Z,5.99
2022-11-24T02:13:43.079Z,6.02
2022-11-24T02:16:15.720Z,6.08
2022-11-24T02:18:46.366Z,6.14
2022-11-24T02:21:17.870Z,6.22
2022-11-24T02:23:53.767Z,6.30
2022-11-24T02:26:33.855Z,6.36
2022-11-24T02:29:03.420Z,6.44
2022-11-24T02:31:33.212Z,6.54
2022-11-24T02:34:02.827Z,6.63
2022-11-24T02:36:32.574Z,6.70
2022-11-24T02:39:02.379Z,6.77
2022-11-24T02:41:34.489Z,6.83
2022-11-24T02:44:04.660Z,6.89
2022-11-24T02:46:34.332Z,6.94
2022-11-24T02:49:03.869Z,6.98
2022-11-24T02:51:34.442Z,7.02
2022-11-24T02:54:04.004Z,7.06
2022-11-24T02:56:36.143Z,7.09
2022-11-24T02:59:05.733Z,7.12
2022-11-24T03:01:35.285Z,7.14
2022-11-24T03:04:04.907Z,7.15
2022-11-24T03:06:34.463Z,7.16
2022-11-24T03:09:04.322Z,7.16
2022-11-24T03:11:36.461Z,7.13
2022-11-24T03:14:06.440Z,7.10
2022-11-24T03:16:36.260Z,7.05
2022-11-24T03:19:06.663Z,7.00
2022-11-24T03:21:36.277Z,6.92
2022-11-24T03:24:06.034Z,6.81
2022-11-24T03:26:38.476Z,6.70
2022-11-24T03:29:08.048Z,6.62
2022-11-24T03:31:37.811Z,6.56
2022-11-24T03:34:07.421Z,6.54
2022-11-24T03:36:36.972Z,6.54
2022-11-24T03:39:07.205Z,6.53
2022-11-24T03:41:39.360Z,6.56
2022-11-24T03:44:08.902Z,6.57
2022-11-24T03:46:39.022Z,6.60
2022-11-24T03:49:08.655Z,6.68
2022-11-24T03:51:38.298Z,6.72
2022-11-24T03:54:08.255Z,6.73
2022-11-24T03:56:40.378Z,6.71
2022-11-24T03:59:09.982Z,6.73
2022-11-24T04:01:39.575Z,6.78
2022-11-24T04:04:09.174Z,6.87
2022-11-24T04:06:38.703Z,6.98
2022-11-24T04:09:09.061Z,7.06
2022-11-24T04:11:53.627Z,7.17
2022-11-24T04:14:23.206Z,7.24
2022-11-24T04:16:52.749Z,7.32
2022-11-24T04:19:22.347Z,7.38
2022-11-24T04:21:52.094Z,7.42
2022-11-24T04:24:21.690Z,7.45
2022-11-24T04:26:54.514Z,7.49
2022-11-24T04:29:24.132Z,7.52
2022-11-24T04:31:53.782Z,7.53
2022-11-24T04:34:23.292Z,7.54
2022-11-24T04:36:53.435Z,7.53
2022-11-24T04:39:28.459Z,7.53
2022-11-24T04:42:01.467Z,7.54
2022-11-24T04:44:31.232Z,7.52
2022-11-24T04:47:01.077Z,7.51
2022-11-24T04:49:30.752Z,7.52
2022-11-24T04:52:00.543Z,7.55
2022-11-24T04:54:30.320Z,7.57
2022-11-24T04:57:02.617Z,7.59
2022-11-24T04:59:32.179Z,7.60
2022-11-24T05:02:01.787Z,7.63
2022-11-24T05:04:31.971Z,7.69
2022-11-24T05:07:01.693Z,7.74
2022-11-24T05:09:48.171Z,7.76
2022-11-24T05:12:24.546Z,7.79
2022-11-24T05:14:54.124Z,7.82
2022-11-24T05:17:23.724Z,7.83
2022-11-24T05:19:53.280Z,7.85
2022-11-24T05:22:22.807Z,7.87
2022-11-24T05:24:52.326Z,7.90
2022-11-24T05:27:24.674Z,7.91
2022-11-24T05:29:54.209Z,7.93
2022-11-24T05:32:23.758Z,7.93
2022-11-24T05:34:54.621Z,7.90
2022-11-24T05:37:25.649Z,7.86
2022-11-24T05:39:55.184Z,7.85
2022-11-24T05:42:44.907Z,7.86
2022-11-24T05:45:18.309Z,7.87
2022-11-24T05:47:48.239Z,7.89
2022-11-24T05:50:19.234Z,7.92
2022-11-24T05:52:49.166Z,7.92
2022-11-24T05:55:19.619Z,7.88
2022-11-24T05:57:51.851Z,7.83
2022-11-24T06:00:21.794Z,7.81
2022-11-24T06:02:51.665Z,7.83
2022-11-24T06:05:21.792Z,7.86
2022-11-24T06:07:52.339Z,7.90
2022-11-24T06:10:23.911Z,7.93
2022-11-24T06:12:56.255Z,7.96
2022-11-24T06:15:26.172Z,7.95
2022-11-24T06:17:57.423Z,7.94
2022-11-24T06:20:32.454Z,7.94
2022-11-24T06:23:02.690Z,7.95
2022-11-24T06:25:33.111Z,7.98
2022-11-24T06:28:07.724Z,8.01
2022-11-24T06:30:37.324Z,8.05
2022-11-24T06:33:06.902Z,8.08
2022-11-24T06:35:36.480Z,8.13
2022-11-24T06:38:07.647Z,8.16
2022-11-24T06:40:38.433Z,8.19
2022-11-24T06:43:10.559Z,8.22
2022-11-24T06:45:40.111Z,8.26
2022-11-24T06:48:09.673Z,8.30
2022-11-24T06:50:39.335Z,8.32
2022-11-24T06:53:08.905Z,8.33
2022-11-24T06:55:38.576Z,8.32
2022-11-24T06:58:10.716Z,8.29
2022-11-24T07:00:40.595Z,8.26
2022-11-24T07:03:10.455Z,8.26
2022-11-24T07:05:39.994Z,8.27
2022-11-24T07:08:13.206Z,8.32
2022-11-24T07:10:47.044Z,8.36
2022-11-24T07:13:19.230Z,8.39
2022-11-24T07:15:48.746Z,8.44
2022-11-24T07:18:18.289Z,8.49
2022-11-24T07:20:47.859Z,8.52
2022-11-24T07:23:17.364Z,8.55
2022-11-24T07:25:46.879Z,8.57
2022-11-24T07:28:18.967Z,8.59
2022-11-24T07:30:48.475Z,8.62
2022-11-24T07:33:21.264Z,8.62
2022-11-24T07:35:50.838Z,8.63
2022-11-24T07:38:20.344Z,8.66
2022-11-24T07:40:50.184Z,8.67
2022-11-24T07:43:22.748Z,8.70
2022-11-24T07:45:54.406Z,8.71
2022-11-24T07:48:24.007Z,8.71
2022-11-24T07:50:56.036Z,8.71
2022-11-24T07:53:25.942Z,8.71
2022-11-24T07:55:58.156Z,8.73
2022-11-24T07:58:33.002Z,8.73
2022-11-24T08:01:03.133Z,8.73
2022-11-24T08:03:32.821Z,8.75
2022-11-24T08:08:52.630Z,8.76
2022-11-24T08:11:22.139Z,8.75
2022-11-24T08:13:54.254Z,8.77
2022-11-24T08:16:23.962Z,8.78
2022-11-24T08:18:54.723Z,8.80
2022-11-24T08:21:25.529Z,8.82
2022-11-24T08:23:57.143Z,8.83
2022-11-24T08:26:27.090Z,8.85
2022-11-24T08:29:00.836Z,8.89
2022-11-24T08:31:33.935Z,8.90
2022-11-24T08:34:04.351Z,8.92
2022-11-24T08:36:34.796Z,8.95
2022-11-24T08:39:05.149Z,9.01
2022-11-24T08:41:34.746Z,9.04
2022-11-24T08:44:08.451Z,9.08
2022-11-24T08:46:38.050Z,9.08
2022-11-24T08:49:07.661Z,9.10
2022-11-24T08:51:37.316Z,9.10
2022-11-24T08:54:07.023Z,9.14
2022-11-24T08:56:36.729Z,9.15
2022-11-24T08:59:08.965Z,9.21
2022-11-24T09:01:54.739Z,9.22
2022-11-24T09:04:24.375Z,9.23
2022-11-24T09:06:53.959Z,9.24
2022-11-24T09:09:23.479Z,9.26
2022-11-24T09:11:53.005Z,9.28
2022-11-24T09:14:25.178Z,9.29
2022-11-24T09:16:54.995Z,9.29
2022-11-24T09:19:24.927Z,9.32
2022-11-24T09:21:54.541Z,9.31
2022-11-24T09:24:24.152Z,9.34
2022-11-24T09:26:53.703Z,9.36
2022-11-24T09:29:25.977Z,9.40
2022-11-24T09:31:55.520Z,9.44
2022-11-24T09:34:25.050Z,9.48
2022-11-24T09:36:54.669Z,9.56
2022-11-24T09:39:24.420Z,9.62
2022-11-24T09:42:04.083Z,9.65
2022-11-24T09:44:53.024Z,9.64
2022-11-24T09:47:29.200Z,9.63
2022-11-24T09:50:02.369Z,9.62
2022-11-24T09:52:42.390Z,9.64
2022-11-24T09:55:28.742Z,9.67
2022-11-24T09:58:06.307Z,9.69
2022-11-24T10:00:39.462Z,9.73
2022-11-24T10:03:09.286Z,9.75
2022-11-24T10:05:39.115Z,9.79
2022-11-24T10:08:21.787Z,9.85
2022-11-24T10:10:55.112Z,9.92
2022-11-24T10:13:35.508Z,9.96
2022-11-24T10:16:17.912Z,10.09
2022-11-24T10:18:59.837Z,10.27
2022-11-24T10:21:38.952Z,10.42
2022-11-24T10:24:25.384Z,10.51
2022-11-24T10:26:59.712Z,10.59
2022-11-24T10:29:32.223Z,10.68
2022-11-24T10:32:08.643Z,10.69
2022-11-24T10:34:41.019Z,10.65
2022-11-24T10:37:17.800Z,10.72
2022-11-24T10:39:58.537Z,10.85
2022-11-24T10:42:31.534Z,10.99
2022-11-24T10:45:05.132Z,11.19
2022-11-24T10:47:37.293Z,11.41
2022-11-24T10:50:11.869Z,11.58
2022-11-24T10:52:44.860Z,11.72
2022-11-24T10:55:14.504Z,11.84
2022-11-24T10:57:45.270Z,11.84
2022-11-24T11:00:34.240Z,11.87
2022-11-24T11:03:21.905Z,11.94
2022-11-24T11:05:54.015Z,12.02
2022-11-24T11:08:26.687Z,12.13
2022-11-24T11:11:15.640Z,12.23
2022-11-24T11:14:00.050Z,12.21
2022-11-24T11:16:37.650Z,12.10
2022-11-24T11:19:50.870Z,12.04
2022-11-24T11:22:26.935Z,12.00
2022-11-24T11:25:07.125Z,12.05
2022-11-24T11:27:36.755Z,12.08
2022-11-24T11:36:14.781Z,11.82
2022-11-24T11:38:45.032Z,11.83
2022-11-24T11:41:21.888Z,11.90
2022-11-24T11:43:55.290Z,11.99
2022-11-24T11:46:26.020Z,12.12
2022-11-24T11:48:55.631Z,12.14
2022-11-24T11:51:45.347Z,12.17
2022-11-24T11:54:21.603Z,12.24
2022-11-24T11:56:53.150Z,12.32
2022-11-24T11:59:33.936Z,12.43
2022-11-24T12:02:27.990Z,12.54
2022-11-24T12:05:00.050Z,12.54
2022-11-24T12:07:46.318Z,12.50
2022-11-24T12:10:23.967Z,12.43
2022-11-24T12:13:06.482Z,12.27
2022-11-24T12:15:40.716Z,12.13
2022-11-24T12:18:55.981Z,12.04
2022-11-24T12:21:26.241Z,11.94
2022-11-24T12:24:10.545Z,11.81
2022-11-24T12:26:44.833Z,11.66
2022-11-24T12:29:33.000Z,11.55
2022-11-24T12:32:08.628Z,11.47
2022-11-24T12:34:45.358Z,11.39
2022-11-24T12:37:25.620Z,11.35
2022-11-24T12:40:01.708Z,11.32
2022-11-24T12:42:38.796Z,11.25
2022-11-24T12:45:15.778Z,11.22
2022-11-24T12:47:58.943Z,11.20
2022-11-24T12:50:30.958Z,11.15
2022-11-24T12:53:03.163Z,11.09
2022-11-24T12:55:36.332Z,11.01
2022-11-24T12:58:11.421Z,10.94
2022-11-24T13:00:51.069Z,10.87
2022-11-24T13:03:32.484Z,10.76
2022-11-24T13:06:05.552Z,10.68
2022-11-24T13:08:35.235Z,10.61
2022-11-24T13:11:33.471Z,10.55
2022-11-24T13:14:03.885Z,10.49
2022-11-24T13:19:24.623Z,10.41
2022-11-24T13:22:21.652Z,10.36
2022-11-24T13:25:11.916Z,10.31
2022-11-24T13:27:49.170Z,10.28
2022-11-24T13:30:51.419Z,10.28
2022-11-24T13:33:33.696Z,10.28
2022-11-24T13:36:35.686Z,10.28
2022-11-24T13:39:07.359Z,10.24
2022-11-24T13:42:10.121Z,10.19
2022-11-24T13:45:03.139Z,10.08
2022-11-24T13:47:38.289Z,10.02
2022-11-24T13:50:10.582Z,9.99
2022-11-24T13:52:51.333Z,10.02
2022-11-24T13:55:33.972Z,10.06
2022-11-24T13:58:23.523Z,10.11
2022-11-24T14:01:24.873Z,10.15
2022-11-24T14:07:05.583Z,10.22
2022-11-24T14:09:39.557Z,10.21
2022-11-24T14:12:16.290Z,10.18
2022-11-24T14:14:47.398Z,10.15
2022-11-24T14:17:29.410Z,10.12
2022-11-24T14:20:00.781Z,10.08
2022-11-24T14:22:44.146Z,10.05
2022-11-24T14:25:23.324Z,10.01
2022-11-24T14:27:53.038Z,9.96
2022-11-24T14:30:24.900Z,9.93
2022-11-24T14:33:01.864Z,9.87
2022-11-24T14:35:33.447Z,9.81
2022-11-24T14:38:05.114Z,9.78
2022-11-24T14:40:42.269Z,9.73
2022-11-24T14:43:23.826Z,9.64
2022-11-24T14:45:56.241Z,9.58
2022-11-24T14:48:30.731Z,9.50
2022-11-24T14:51:09.459Z,9.42
2022-11-24T14:53:39.373Z,9.35
2022-11-24T14:56:16.625Z,9.31
2022-11-24T14:58:46.228Z,9.23
2022-11-24T15:01:32.749Z,9.18
2022-11-24T15:07:20.094Z,9.07
2022-11-24T15:09:53.668Z,9.01
2022-11-24T15:12:30.664Z,8.90
2022-11-24T15:15:02.322Z,8.80
2022-11-24T15:17:32.723Z,8.71
2022-11-24T15:20:11.803Z,8.61
2022-11-24T15:22:43.534Z,8.52
2022-11-24T15:25:32.540Z,8.44
2022-11-24T15:28:02.365Z,8.34
2022-11-24T15:30:32.332Z,8.24
2022-11-24T15:33:02.485Z,8.17
2022-11-24T15:35:35.695Z,8.09
2022-11-24T15:38:05.328Z,8.00
2022-11-24T15:40:34.972Z,7.91
2022-11-24T15:43:06.700Z,7.85
2022-11-24T15:45:37.115Z,7.79
2022-11-24T15:48:06.921Z,7.76
2022-11-24T15:50:39.430Z,7.74
2022-11-24T15:53:09.229Z,7.72
2022-11-24T15:55:39.540Z,7.69
2022-11-24T15:58:10.238Z,7.66
2022-11-24T16:00:40.500Z,7.63
2022-11-24T16:03:44.459Z,7.60
2022-11-24T16:06:02.415Z,7.59
2022-11-24T16:08:31.965Z,7.57
2022-11-24T16:11:01.575Z,7.56
2022-11-24T16:13:31.193Z,7.54
2022-11-24T16:16:00.880Z,7.53
2022-11-24T16:18:31.617Z,7.49
2022-11-24T16:21:04.153Z,7.45
2022-11-24T16:23:33.728Z,7.38
2022-11-24T16:26:03.406Z,7.35
2022-11-24T16:28:33.265Z,7.31
2022-11-24T16:31:02.863Z,7.26
2022-11-24T16:33:38.651Z,7.21
2022-11-24T16:36:11.853Z,7.15
2022-11-24T16:38:41.484Z,7.10
2022-11-24T16:41:11.682Z,7.06
2022-11-24T16:43:41.585Z,7.04
2022-11-24T16:46:22.248Z,7.01
2022-11-24T16:48:53.098Z,6.96
2022-11-24T16:51:29.896Z,6.92
2022-11-24T16:54:01.922Z,6.89
2022-11-24T16:56:32.186Z,6.91
2022-11-24T16:59:01.804Z,6.94
2022-11-24T17:01:33.034Z,7.01
2022-11-24T17:04:03.751Z,7.05
2022-11-24T17:06:38.253Z,7.09
2022-11-24T17:09:07.837Z,7.09
2022-11-24T17:11:37.485Z,7.10
2022-11-24T17:14:07.212Z,7.11
2022-11-24T17:16:36.814Z,7.11
2022-11-24T17:19:06.647Z,7.09
2022-11-24T17:21:38.819Z,7.06
2022-11-24T17:24:15.089Z,7.01
2022-11-24T17:26:48.768Z,6.97
2022-11-24T17:29:18.785Z,6.95
2022-11-24T17:31:49.167Z,6.94
2022-11-24T17:34:18.805Z,6.92
2022-11-24T17:36:51.486Z,6.90
2022-11-24T17:39:24.788Z,6.87
2022-11-24T17:41:54.686Z,6.86
2022-11-24T17:44:24.252Z,6.86
2022-11-24T17:46:53.838Z,6.84
2022-11-24T17:49:23.404Z,6.80
2022-11-24T17:51:55.650Z,6.76
2022-11-24T17:54:45.579Z,6.72
2022-11-24T17:57:14.959Z,6.67
2022-11-24T17:59:44.490Z,6.60
2022-11-24T18:02:14.193Z,6.56
2022-11-24T18:04:43.743Z,6.53
2022-11-24T18:07:15.925Z,6.52
2022-11-24T18:09:45.480Z,6.52
2022-11-24T18:12:15.240Z,6.54
2022-11-24T18:14:44.830Z,6.57
2022-11-24T18:17:14.483Z,6.56
2022-11-24T18:19:45.686Z,6.55
2022-11-24T18:22:21.003Z,6.53
2022-11-24T18:24:56.722Z,6.51
2022-11-24T18:27:26.491Z,6.48
2022-11-24T18:29:56.323Z,6.46
2022-11-24T18:32:26.028Z,6.43
2022-11-24T18:34:55.585Z,6.40
2022-11-24T18:37:27.763Z,6.37
2022-11-24T18:39:57.311Z,6.32
2022-11-24T18:42:26.907Z,6.28
2022-11-24T18:44:56.622Z,6.23
2022-11-24T18:47:26.302Z,6.16
2022-11-24T18:49:59.160Z,6.14
2022-11-24T18:52:31.377Z,6.10
2022-11-24T18:55:03.888Z,6.05
2022-11-24T18:57:33.732Z,6.00
2022-11-24T19:00:03.341Z,5.97
2022-11-24T19:02:33.027Z,5.95
2022-11-24T19:05:03.060Z,5.91
2022-11-24T19:07:35.289Z,5.89
2022-11-24T19:10:04.876Z,5.87
2022-11-24T19:12:34.491Z,5.85
2022-11-24T19:15:04.074Z,5.84
2022-11-24T19:17:33.690Z,5.82
2022-11-24T19:20:03.252Z,5.81
2022-11-24T19:22:35.516Z,5.79
2022-11-24T19:25:05.414Z,5.78
2022-11-24T19:27:35.684Z,5.80
2022-11-24T19:30:05.308Z,5.85
2022-11-24T19:32:35.113Z,5.88
2022-11-24T19:35:04.715Z,5.93
2022-11-24T19:37:37.076Z,5.99
2022-11-24T19:40:07.367Z,6.02
2022-11-24T19:42:37.030Z,6.04
2022-11-24T19:45:07.678Z,6.05
2022-11-24T19:47:37.255Z,6.04
2022-11-24T19:50:10.502Z,6.02
2022-11-24T19:52:42.885Z,6.05
2022-11-24T19:55:12.713Z,6.04
2022-11-24T19:57:42.329Z,6.02
2022-11-24T20:00:12.795Z,6.02
2022-11-24T20:02:42.478Z,6.03
2022-11-24T20:05:12.202Z,6.04
2022-11-24T20:07:44.454Z,6.04
2022-11-24T20:10:14.133Z,6.07
2022-11-24T20:12:43.756Z,6.09
2022-11-24T20:15:13.445Z,6.08
2022-11-24T20:17:43.053Z,6.05
2022-11-24T20:20:13.717Z,6.00
2022-11-24T20:22:46.648Z,5.95
2022-11-24T20:25:16.292Z,5.92
2022-11-24T20:27:45.904Z,5.88
2022-11-24T20:30:15.764Z,5.86
2022-11-24T20:32:45.404Z,5.87
2022-11-24T20:35:18.191Z,5.86
2022-11-24T20:37:50.684Z,5.84
2022-11-24T20:40:20.260Z,5.83
2022-11-24T20:42:49.810Z,5.79
2022-11-24T20:45:19.428Z,5.72
2022-11-24T20:47:48.982Z,5.67
2022-11-24T20:50:18.620Z,5.63
2022-11-24T20:52:50.764Z,5.62
2022-11-24T20:55:20.391Z,5.59
2022-11-24T20:57:49.973Z,5.56
2022-11-24T21:00:19.979Z,5.54
2022-11-24T21:02:49.837Z,5.53
2022-11-24T21:05:19.610Z,5.51
2022-11-24T21:07:51.856Z,5.52
2022-11-24T21:10:21.489Z,5.51
2022-11-24T21:12:51.051Z,5.50
2022-11-24T21:15:20.584Z,5.52
2022-11-24T21:17:50.161Z,5.54
2022-11-24T21:20:19.812Z,5.56
2022-11-24T21:22:51.998Z,5.56
2022-11-24T21:25:21.644Z,5.55
2022-11-24T21:27:51.244Z,5.57
2022-11-24T21:30:20.893Z,5.59
2022-11-24T21:32:50.642Z,5.58
2022-11-24T21:35:20.300Z,5.59
2022-11-24T21:37:52.588Z,5.61
2022-11-24T21:40:22.182Z,5.60
2022-11-24T21:42:54.036Z,5.59
2022-11-24T21:45:23.778Z,5.58
2022-11-24T21:47:53.483Z,5.57
2022-11-24T21:50:23.140Z,5.56
2022-11-24T21:52:59.258Z,5.55
2022-11-24T21:55:31.665Z,5.56
2022-11-24T21:58:01.210Z,5.58
2022-11-24T22:00:30.759Z,5.64
2022-11-24T22:03:00.347Z,5.68
2022-11-24T22:05:29.920Z,5.74
2022-11-24T22:08:02.104Z,5.82
2022-11-24T22:10:31.634Z,5.92
2022-11-24T22:13:01.274Z,6.03
2022-11-24T22:15:30.836Z,6.13
2022-11-24T22:18:00.906Z,6.21
2022-11-24T22:20:30.507Z,6.29
2022-11-24T22:23:02.646Z,6.34
2022-11-24T22:25:32.239Z,6.36
2022-11-24T22:28:01.893Z,6.34
2022-11-24T22:30:31.457Z,6.32
2022-11-24T22:33:00.991Z,6.29
2022-11-24T22:35:30.538Z,6.28
2022-11-24T22:38:02.713Z,6.32
2022-11-24T22:40:32.262Z,6.36
2022-11-24T22:43:01.847Z,6.37
2022-11-24T22:45:31.450Z,6.38
2022-11-24T22:48:01.153Z,6.42
2022-11-24T22:50:30.695Z,6.43
2022-11-24T22:53:02.872Z,6.45
2022-11-24T22:55:32.409Z,6.44
2022-11-24T22:58:01.989Z,6.44
2022-11-24T23:00:31.707Z,6.46
2022-11-24T23:03:01.360Z,6.48
2022-11-24T23:05:31.205Z,6.51
2022-11-24T23:08:03.845Z,6.58
2022-11-24T23:10:33.396Z,6.65
2022-11-24T23:13:02.963Z,6.71
2022-11-24T23:15:32.863Z,6.77
2022-11-24T23:18:02.457Z,6.86
2022-11-24T23:20:32.023Z,6.93
2022-11-24T23:23:04.191Z,7.01
2022-11-24T23:25:33.727Z,7.06
2022-11-24T23:28:03.316Z,7.13
2022-11-24T23:30:32.961Z,7.18
2022-11-24T23:33:02.763Z,7.22
2022-11-24T23:35:32.387Z,7.25
2022-11-24T23:38:08.157Z,7.29
2022-11-24T23:40:37.815Z,7.32
2022-11-24T23:43:07.402Z,7.36
2022-11-24T23:45:36.963Z,7.37
2022-11-24T23:48:08.588Z,7.40
2022-11-24T23:50:38.228Z,7.42
2022-11-24T23:53:10.530Z,7.43
2022-11-24T23:55:40.056Z,7.44
2022-11-24T23:58:09.868Z,7.46
